sensor_id;sensor_type;location;lat;lon;timestamp;pressure;altitude;pressure_sealevel;temperature
77385;BMP280;66444;49.680;18.538;2023-05-23T00:03:39;97138.4374327188;;;12.30773593876511
77385;BMP280;66444;49.680;18.538;2023-05-23T00:08:43;97136.79400480128;;;12.226373281888664
77385;BMP280;66444;49.680;18.538;2023-05-23T00:13:52;97132.17771736237;;;12.195861901389435
77385;BMP280;66444;49.680;18.538;2023-05-23T00:18:55;97126.8452124908;;;12.195861901389435
77385;BMP280;66444;49.680;18.538;2023-05-23T00:23:59;97127.56149733876;;;12.165350311342626
77385;BMP280;66444;49.680;18.538;2023-05-23T00:29:03;97124.89538012068;;;12.165350311342626
77385;BMP280;66444;49.680;18.538;2023-05-23T00:34:07;97119.9213170801;;;12.15009443773888
77385;BMP280;66444;49.680;18.538;2023-05-23T00:39:11;97133.49997231702;;;12.063643497787416
77385;BMP280;66444;49.680;18.538;2023-05-23T00:44:15;97134.87119609978;;;11.967019868316129
77385;BMP280;66444;49.680;18.538;2023-05-23T00:49:24;97142.8095401571;;;11.931421159347519
77385;BMP280;66444;49.680;18.538;2023-05-23T00:54:29;97139.43207880904;;;11.961934355925768
77385;BMP280;66444;49.680;18.538;2023-05-23T00:59:33;97145.47466038191;;;11.931421159347519
77385;BMP280;66444;49.680;18.538;2023-05-23T01:04:39;97139.1995008502;;;11.81953764576465
77385;BMP280;66444;49.680;18.538;2023-05-23T01:09:45;97132.21176703874;;;11.738166048191488
77385;BMP280;66444;49.680;18.538;2023-05-23T01:14:50;97124.21896173037;;;11.738166048191488
77385;BMP280;66444;49.680;18.538;2023-05-23T01:20:02;97124.57398040465;;;11.722908707754687
77385;BMP280;66444;49.680;18.538;2023-05-23T01:25:18;97118.4160708638;;;11.682222210476175
77385;BMP280;66444;49.680;18.538;2023-05-23T01:30:31;97119.06463223328;;;11.616105857864023
77385;BMP280;66444;49.680;18.538;2023-05-23T01:35:42;97122.85241781735;;;11.605934023996815
77385;BMP280;66444;49.680;18.538;2023-05-23T01:40:47;97112.84467002339;;;11.539816536335275
77385;BMP280;66444;49.680;18.538;2023-05-23T01:45:51;97114.61296930666;;;11.463525905134157
77385;BMP280;66444;49.680;18.538;2023-05-23T01:50:58;97113.23361227737;;;11.331285708583891
77385;BMP280;66444;49.680;18.538;2023-05-23T01:56:07;97113.52042295488;;;11.2804230467882
77385;BMP280;66444;49.680;18.538;2023-05-23T02:01:11;97117.58989098387;;;11.219387084292247
77385;BMP280;66444;49.680;18.538;2023-05-23T02:06:15;97127.04869207068;;;11.193955185869708
77385;BMP280;66444;49.680;18.538;2023-05-23T02:11:19;97124.31872045889;;;11.158350283605978
77385;BMP280;66444;49.680;18.538;2023-05-23T02:16:23;97122.70954038807;;;11.11257213302888
77385;BMP280;66444;49.680;18.538;2023-05-23T02:21:27;97112.76500115442;;;11.082053104043007
77385;BMP280;66444;49.680;18.538;2023-05-23T02:26:30;97111.22453786839;;;11.07188004781492
77385;BMP280;66444;49.680;18.538;2023-05-23T02:31:35;97096.59051995007;;;10.975234852405265
77385;BMP280;66444;49.680;18.538;2023-05-23T02:36:39;97103.1697149448;;;10.842980127222836
77385;BMP280;66444;49.680;18.538;2023-05-23T02:41:43;97103.30020576772;;;10.7208953499794
77385;BMP280;66444;49.680;18.538;2023-05-23T02:46:47;97100.84010884094;;;10.634416604228317
77385;BMP280;66444;49.680;18.538;2023-05-23T02:51:51;97101.45993198018;;;10.568284663604572
77385;BMP280;66444;49.680;18.538;2023-05-23T02:56:55;97091.09501138532;;;10.517413270659745
77385;BMP280;66444;49.680;18.538;2023-05-23T03:01:58;97090.400269208;;;10.547936176275835
77385;BMP280;66444;49.680;18.538;2023-05-23T03:07:08;97090.55031788442;;;10.619155474472791
77385;BMP280;66444;49.680;18.538;2023-05-23T03:12:12;97082.99430386392;;;10.639503635838627
77385;BMP280;66444;49.680;18.538;2023-05-23T03:17:16;97090.69824027379;;;10.690373631799593
77385;BMP280;66444;49.680;18.538;2023-05-23T03:22:20;97086.29432501497;;;10.7666775343474
77385;BMP280;66444;49.680;18.538;2023-05-23T03:27:24;97074.18505228763;;;10.792111877491697
77385;BMP280;66444;49.680;18.538;2023-05-23T03:32:28;97082.58617577684;;;10.812459247233345
77385;BMP280;66444;49.680;18.538;2023-05-23T03:37:32;97079.64673542355;;;10.86332726413384
77385;BMP280;66444;49.680;18.538;2023-05-23T03:42:37;97075.16555418048;;;10.904021258559078
77385;BMP280;66444;49.680;18.538;2023-05-23T03:47:41;97071.52122290769;;;10.985408129822464
77385;BMP280;66444;49.680;18.538;2023-05-23T03:52:45;97071.01862292555;;;11.122745096124708
77385;BMP280;66444;49.680;18.538;2023-05-23T03:57:50;97068.38755911983;;;11.351630610320717
77385;BMP280;66444;49.680;18.538;2023-05-23T04:02:53;97075.61686118307;;;11.575418382696807
77385;BMP280;66444;49.680;18.538;2023-05-23T04:07:57;97074.42401615853;;;11.778852033242583
77385;BMP280;66444;49.680;18.538;2023-05-23T04:13:00;97068.54494067826;;;11.916164482478052
77385;BMP280;66444;49.680;18.538;2023-05-23T04:18:03;97055.78632882074;;;12.043301855679601
77385;BMP280;66444;49.680;18.538;2023-05-23T04:23:11;97049.93342342922;;;12.216202845005318
77385;BMP280;66444;49.680;18.538;2023-05-23T04:28:25;97046.45875700239;;;12.475541712483391
77385;BMP280;66444;49.680;18.538;2023-05-23T04:33:28;97049.46167224894;;;12.760288520110771
77385;BMP280;66444;49.680;18.538;2023-05-23T04:38:31;97049.39660856687;;;13.060269874054939
77385;BMP280;66444;49.680;18.538;2023-05-23T04:43:34;97041.24884351801;;;13.324643421173096
77385;BMP280;66444;49.680;18.538;2023-05-23T04:48:38;97042.24508615;;;13.614419419458136
77385;BMP280;66444;49.680;18.538;2023-05-23T04:53:40;97043.99516469007;;;13.944842653954401
77385;BMP280;66444;49.680;18.538;2023-05-23T04:58:44;97035.7500520473;;;14.24474398982711
77385;BMP280;66444;49.680;18.538;2023-05-23T05:03:46;97043.51652386205;;;14.544625063613058
77385;BMP280;66444;49.680;18.538;2023-05-23T05:08:49;97031.35567405193;;;14.819074727920816
77385;BMP280;66444;49.680;18.538;2023-05-23T05:13:52;97023.74612884148;;;15.123998892353848
77385;BMP280;66444;49.680;18.538;2023-05-23T05:18:55;97023.74805030506;;;15.408575873309747
77385;BMP280;66444;49.680;18.538;2023-05-23T05:23:58;97028.31831308895;;;15.65248447121121
77385;BMP280;66444;49.680;18.538;2023-05-23T05:29:01;97032.09250354039;;;15.92686561346054
77385;BMP280;66444;49.680;18.538;2023-05-23T05:34:04;97033.91900023218;;;16.20631044022739
77385;BMP280;66444;49.680;18.538;2023-05-23T05:39:07;97025.34753467786;;;16.50605895188637
77385;BMP280;66444;49.680;18.538;2023-05-23T05:44:10;97019.83209597564;;;16.754987229313702
77385;BMP280;66444;49.680;18.538;2023-05-23T05:49:13;97017.70950116924;;;17.04453927362338
77385;BMP280;66444;49.680;18.538;2023-05-23T05:54:17;97010.96745143773;;;17.303596124984324
77385;BMP280;66444;49.680;18.538;2023-05-23T05:59:20;97012.62302025319;;;17.58295419323258
77385;BMP280;66444;49.680;18.538;2023-05-23T06:04:24;97010.79274143225;;;17.85721589336172
77385;BMP280;66444;49.680;18.538;2023-05-23T06:09:27;97008.92847488617;;;18.13146062013693
77385;BMP280;66444;49.680;18.538;2023-05-23T06:14:30;96994.7330500481;;;18.395532092778012
77385;BMP280;66444;49.680;18.538;2023-05-23T06:19:33;97002.04901667027;;;18.659587826067582
77385;BMP280;66444;49.680;18.538;2023-05-23T06:24:36;96995.10260998679;;;18.91855027624406
77385;BMP280;66444;49.680;18.538;2023-05-23T06:29:39;96996.62223846269;;;19.162265810975804
77385;BMP280;66444;49.680;18.538;2023-05-23T06:34:42;96996.65892744515;;;19.360274808015674
77385;BMP280;66444;49.680;18.538;2023-05-23T06:39:50;96993.91307010775;;;19.593812501849605
77385;BMP280;66444;49.680;18.538;2023-05-23T06:44:53;96992.31887112297;;;19.81718485779129
77385;BMP280;66444;49.680;18.538;2023-05-23T06:49:56;96986.48030591755;;;20.030393412522972
77385;BMP280;66444;49.680;18.538;2023-05-23T06:54:59;96986.85889192845;;;20.21313542993739
77385;BMP280;66444;49.680;18.538;2023-05-23T07:00:04;96987.7392314541;;;20.50753725725226
77385;BMP280;66444;49.680;18.538;2023-05-23T07:05:08;96974.65141867822;;;20.65473082801327
77385;BMP280;66444;49.680;18.538;2023-05-23T07:10:11;96974.55355657176;;;20.85267308414914
77385;BMP280;66444;49.680;18.538;2023-05-23T07:15:14;96969.2710387151;;;21.106432256195696
77385;BMP280;66444;49.680;18.538;2023-05-23T07:20:17;96974.11662517728;;;21.319578714994712
77385;BMP280;66444;49.680;18.538;2023-05-23T07:25:21;96961.1877238443;;;21.52256579636596
77385;BMP280;66444;49.680;18.538;2023-05-23T07:30:24;96963.36507033119;;;21.57331111151725
77385;BMP280;66444;49.680;18.538;2023-05-23T07:35:27;96964.0467862968;;;21.740766521682964
77385;BMP280;66444;49.680;18.538;2023-05-23T07:40:30;96959.94194669482;;;21.821954741841182
77385;BMP280;66444;49.680;18.538;2023-05-23T07:45:33;96968.29835141564;;;22.004622788960113
77385;BMP280;66444;49.680;18.538;2023-05-23T07:50:36;96961.69017565859;;;22.14161887373775
77385;BMP280;66444;49.680;18.538;2023-05-23T07:55:41;96961.57255183744;;;22.303979109041393
77385;BMP280;66444;49.680;18.538;2023-05-23T08:00:44;96952.11676206208;;;22.476480328151958
77385;BMP280;66444;49.680;18.538;2023-05-23T08:05:48;96950.13682471942;;;22.608388484921306
77385;BMP280;66444;49.680;18.538;2023-05-23T08:10:51;96957.88003806394;;;22.841754815401508
77385;BMP280;66444;49.680;18.538;2023-05-23T08:15:54;96948.69183664728;;;23.034526407159866
77385;BMP280;66444;49.680;18.538;2023-05-23T08:20:57;96949.58063231676;;;23.222216985980047
77385;BMP280;66444;49.680;18.538;2023-05-23T08:26:00;96939.8545861184;;;23.33888549162075
77385;BMP280;66444;49.680;18.538;2023-05-23T08:31:03;96941.47336070145;;;23.53163540684618
77385;BMP280;66444;49.680;18.538;2023-05-23T08:36:06;96936.71157437598;;;23.663512084912508
77385;BMP280;66444;49.680;18.538;2023-05-23T08:41:15;96937.3732216939;;;23.79538482814096
77385;BMP280;66444;49.680;18.538;2023-05-23T08:46:21;96928.77701890892;;;23.810600660694764
77385;BMP280;66444;49.680;18.538;2023-05-23T08:51:25;96930.21395376867;;;24.038831862574444
77385;BMP280;66444;49.680;18.538;2023-05-23T08:56:29;96940.23480171252;;;24.25183701645583
77385;BMP280;66444;49.680;18.538;2023-05-23T09:01:33;96935.43832009747;;;24.47497426001355
77385;BMP280;66444;49.680;18.538;2023-05-23T09:06:37;96929.99941710535;;;24.47497426001355
77385;BMP280;66444;49.680;18.538;2023-05-23T09:11:40;96922.45400707518;;;24.606822788855062
77385;BMP280;66444;49.680;18.538;2023-05-23T09:16:45;96929.25361674832;;;24.835012867022307
77385;BMP280;66444;49.680;18.538;2023-05-23T09:21:49;96930.76477445834;;;24.845154374698176
77385;BMP280;66444;49.680;18.538;2023-05-23T09:26:52;96921.24640272697;;;24.70824205656536
77385;BMP280;66444;49.680;18.538;2023-05-23T09:32:07;96910.96773365943;;;24.748809111723677
77385;BMP280;66444;49.680;18.538;2023-05-23T09:37:12;96908.81553615349;;;25.063191158138217
77385;BMP280;66444;49.680;18.538;2023-05-23T09:42:19;96897.01389754302;;;25.09361403970979
77385;BMP280;66444;49.680;18.538;2023-05-23T09:47:23;96894.5408143381;;;25.29642789508216
77385;BMP280;66444;49.680;18.538;2023-05-23T09:52:26;96896.57592646875;;;25.529652315285055
77385;BMP280;66444;49.680;18.538;2023-05-23T09:57:36;96893.81267231402;;;25.6209106921684
77385;BMP280;66444;49.680;18.538;2023-05-23T10:02:50;96889.19741885913;;;25.773003796022387
77385;BMP280;66444;49.680;18.538;2023-05-23T10:07:57;96881.26226416658;;;26.122798054059967
77385;BMP280;66444;49.680;18.538;2023-05-23T10:13:02;96884.322845737;;;26.29008116372861
77385;BMP280;66444;49.680;18.538;2023-05-23T10:18:09;96875.23964646088;;;26.46749571696855
77385;BMP280;66444;49.680;18.538;2023-05-23T10:23:19;96874.50843290047;;;26.609422225644813
77385;BMP280;66444;49.680;18.538;2023-05-23T10:28:23;96872.87406494768;;;26.39653075132519
77385;BMP280;66444;49.680;18.538;2023-05-23T10:33:26;96859.72658364032;;;26.528321922337636
77385;BMP280;66444;49.680;18.538;2023-05-23T10:38:37;96860.30822059062;;;26.715864112367854
77385;BMP280;66444;49.680;18.538;2023-05-23T10:43:49;96864.2602001134;;;26.705726900417357
77385;BMP280;66444;49.680;18.538;2023-05-23T10:49:00;96855.22502157185;;;26.93887688466348
77385;BMP280;66444;49.680;18.538;2023-05-23T10:54:09;96862.00546376225;;;26.837508839694785
77385;BMP280;66444;49.680;18.538;2023-05-23T10:59:19;96852.4933794117;;;26.64490313977003
77385;BMP280;66444;49.680;18.538;2023-05-23T11:04:24;96852.37638109998;;;26.442151217348872
77385;BMP280;66444;49.680;18.538;2023-05-23T11:09:28;96857.44222394687;;;26.366116845374926
77385;BMP280;66444;49.680;18.538;2023-05-23T11:14:52;96866.00913507139;;;26.056896906811744
77385;BMP280;66444;49.680;18.538;2023-05-23T11:19:58;96870.41344209333;;;25.793282480724155
77385;BMP280;66444;49.680;18.538;2023-05-23T11:25:07;96875.91243864986;;;25.70202766614966
77385;BMP280;66444;49.680;18.538;2023-05-23T11:30:13;96886.76434985103;;;25.793282480724155
77385;BMP280;66444;49.680;18.538;2023-05-23T11:35:17;96881.31403701425;;;25.793282480724155
77385;BMP280;66444;49.680;18.538;2023-05-23T11:40:24;96889.45250819017;;;25.555002053594215
77385;BMP280;66444;49.680;18.538;2023-05-23T11:45:29;96874.88817484395;;;25.255865869065747
77385;BMP280;66444;49.680;18.538;2023-05-23T11:50:34;96861.5999549372;;;25.184881427139043
77385;BMP280;66444;49.680;18.538;2023-05-23T11:55:47;96859.65925419977;;;25.098684499599038
77385;BMP280;66444;49.680;18.538;2023-05-23T12:00:57;96859.6013561217;;;25.281217178981752
77385;BMP280;66444;49.680;18.538;2023-05-23T12:06:01;96830.6333766046;;;25.96564754047431
77385;BMP280;66444;49.680;18.538;2023-05-23T12:11:05;96822.66412918808;;;26.756412727339193
77385;BMP280;66444;49.680;18.538;2023-05-23T12:16:08;96822.46365568042;;;26.93887688466348
77385;BMP280;66444;49.680;18.538;2023-05-23T12:21:14;96863.7992392918;;;25.382620963454247
77385;BMP280;66444;49.680;18.538;2023-05-23T12:26:17;96873.12561860695;;;23.947540796268733
77385;BMP280;66444;49.680;18.538;2023-05-23T12:31:21;96889.12159120508;;;22.780877829669045
77385;BMP280;66444;49.680;18.538;2023-05-23T12:36:25;96897.08426711232;;;22.253242175793275
77385;BMP280;66444;49.680;18.538;2023-05-23T12:41:31;96902.6332073637;;;22.090880077844485
77385;BMP280;66444;49.680;18.538;2023-05-23T12:46:35;96917.47156919973;;;22.17206187187694
77385;BMP280;66444;49.680;18.538;2023-05-23T12:51:38;96927.23415272223;;;22.01984478570521
77385;BMP280;66444;49.680;18.538;2023-05-23T12:56:42;96935.90212836994;;;21.96910459282808
77385;BMP280;66444;49.680;18.538;2023-05-23T13:01:45;96948.46702022773;;;21.908215593034402
77385;BMP280;66444;49.680;18.538;2023-05-23T13:06:49;96948.7833263117;;;21.801657826500012
77385;BMP280;66444;49.680;18.538;2023-05-23T13:11:52;96956.35508439221;;;21.72554356451146
77385;BMP280;66444;49.680;18.538;2023-05-23T13:16:56;96957.99280428511;;;21.827028956124558
77385;BMP280;66444;49.680;18.538;2023-05-23T13:22:00;96964.71674435108;;;21.908215593034402
77385;BMP280;66444;49.680;18.538;2023-05-23T13:27:04;96968.82456476445;;;21.827028956124558
77385;BMP280;66444;49.680;18.538;2023-05-23T13:32:08;96972.4739422122;;;21.634204721357673
77385;BMP280;66444;49.680;18.538;2023-05-23T13:37:12;96986.93010220678;;;21.441372081404552
77385;BMP280;66444;49.680;18.538;2023-05-23T13:42:15;96978.6730574705;;;21.350027370918543
77385;BMP280;66444;49.680;18.538;2023-05-23T13:47:19;96972.541598733;;;21.47181989913806
77385;BMP280;66444;49.680;18.538;2023-05-23T13:52:27;96954.71344864531;;;21.62405584459193
77385;BMP280;66444;49.680;18.538;2023-05-23T13:57:31;96963.36507033119;;;21.57331111151725
77385;BMP280;66444;49.680;18.538;2023-05-23T14:02:35;96971.35363527173;;;21.48196912514977
77385;BMP280;66444;49.680;18.538;2023-05-23T14:07:38;96967.7527871741;;;21.38555053798482
77385;BMP280;66444;49.680;18.538;2023-05-23T14:12:42;96961.58151212978;;;21.38047581729479
77385;BMP280;66444;49.680;18.538;2023-05-23T14:17:46;96958.20062422236;;;21.75598942646757
77385;BMP280;66444;49.680;18.538;2023-05-23T14:22:50;96946.6952499182;;;22.476480328151958
77385;BMP280;66444;49.680;18.538;2023-05-23T14:27:54;96942.09807633422;;;23.572213265346363
77385;BMP280;66444;49.680;18.538;2023-05-23T14:32:57;96927.07927138451;;;25.240655013266952
77385;BMP280;66444;49.680;18.538;2023-05-23T14:38:05;96933.32492766267;;;24.97192125613801
77385;BMP280;66444;49.680;18.538;2023-05-23T14:43:09;96931.15994595588;;;24.190979448799045
77385;BMP280;66444;49.680;18.538;2023-05-23T14:48:12;96934.79205504674;;;23.450478572258724
77385;BMP280;66444;49.680;18.538;2023-05-23T14:53:15;96925.84406124364;;;22.917849868861957
77385;BMP280;66444;49.680;18.538;2023-05-23T14:58:20;96938.24176814637;;;22.45618641632609
77385;BMP280;66444;49.680;18.538;2023-05-23T15:03:23;96940.66801830904;;;21.928512019431217
77385;BMP280;66444;49.680;18.538;2023-05-23T15:08:27;96941.25335773267;;;21.461670649843292
77385;BMP280;66444;49.680;18.538;2023-05-23T15:13:30;96938.80508969942;;;21.22823148993775
77385;BMP280;66444;49.680;18.538;2023-05-23T15:18:34;96933.06311667823;;;21.207931850478055
77385;BMP280;66444;49.680;18.538;2023-05-23T15:23:37;96936.1484247594;;;21.065831766556947
77385;BMP280;66444;49.680;18.538;2023-05-23T15:28:41;96938.18712065753;;;21.025230904389172
77385;BMP280;66444;49.680;18.538;2023-05-23T15:33:44;96931.25960259479;;;21.015080630639567
77385;BMP280;66444;49.680;18.538;2023-05-23T15:38:49;96924.33228300369;;;21.0049303336069
77385;BMP280;66444;49.680;18.538;2023-05-23T15:43:53;96920.58490921979;;;21.106432256195696
77385;BMP280;66444;49.680;18.538;2023-05-23T15:48:56;96908.32110675224;;;21.350027370918543
77385;BMP280;66444;49.680;18.538;2023-05-23T15:53:59;96915.05001712647;;;21.431222762260585
77385;BMP280;66444;49.680;18.538;2023-05-23T15:59:04;96907.29422923262;;;21.705246206792072
77385;BMP280;66444;49.680;18.538;2023-05-23T16:04:07;96895.81824685854;;;21.918363817874344
77385;BMP280;66444;49.680;18.538;2023-05-23T16:09:11;96890.8362174661;;;21.776286551356314
77385;BMP280;66444;49.680;18.538;2023-05-23T16:14:15;96890.28144377458;;;21.57331111151725
77385;BMP280;66444;49.680;18.538;2023-05-23T16:19:19;96879.74594426437;;;21.339877842226997
77385;BMP280;66444;49.680;18.538;2023-05-23T16:24:22;96878.06782861029;;;21.11150729120709
77385;BMP280;66444;49.680;18.538;2023-05-23T16:29:26;96886.99459278752;;;20.95417849919759
77385;BMP280;66444;49.680;18.538;2023-05-23T16:34:29;96888.98100674424;;;20.786693315813316
77385;BMP280;66444;49.680;18.538;2023-05-23T16:39:33;96899.57490917502;;;20.568445535423233
77385;BMP280;66444;49.680;18.538;2023-05-23T16:44:36;96907.5236121971;;;20.314655513316392
77385;BMP280;66444;49.680;18.538;2023-05-23T16:49:40;96922.3588372491;;;20.07100340165198
77385;BMP280;66444;49.680;18.538;2023-05-23T16:54:43;96921.15104167568;;;19.918714021565393
77385;BMP280;66444;49.680;18.538;2023-05-23T16:59:47;96924.34551899969;;;19.867949730716646
77385;BMP280;66444;49.680;18.538;2023-05-23T17:04:51;96925.86628992615;;;19.878102635452525
77385;BMP280;66444;49.680;18.538;2023-05-23T17:09:54;96935.14304080092;;;19.867949730716646
77385;BMP280;66444;49.680;18.538;2023-05-23T17:15:04;96946.92326770883;;;19.766419402789325
77385;BMP280;66444;49.680;18.538;2023-05-23T17:20:10;96942.35926183467;;;19.735959850391374
77385;BMP280;66444;49.680;18.538;2023-05-23T17:25:14;96950.32577546737;;;19.609042793186383
77385;BMP280;66444;49.680;18.538;2023-05-23T17:30:17;96963.9445883974;;;19.339966600388287
77385;BMP280;66444;49.680;18.538;2023-05-23T17:35:21;96974.2898470199;;;19.15718854079023
77385;BMP280;66444;49.680;18.538;2023-05-23T17:40:25;96983.67403406835;;;19.075951426196845
77385;BMP280;66444;49.680;18.538;2023-05-23T17:45:29;96986.89991669898;;;18.989635359216482
77385;BMP280;66444;49.680;18.538;2023-05-23T17:50:32;96992.46454986485;;;18.88300730693154
77385;BMP280;66444;49.680;18.538;2023-05-23T17:55:36;96996.85175414955;;;18.78653209535405
77385;BMP280;66444;49.680;18.538;2023-05-23T18:00:39;96992.68804468871;;;18.74083257750608
77385;BMP280;66444;49.680;18.538;2023-05-23T18:05:43;97000.52462045393;;;18.64943212736398
77385;BMP280;66444;49.680;18.538;2023-05-23T18:10:47;97005.40666858098;;;18.46662556929514
77385;BMP280;66444;49.680;18.538;2023-05-23T18:15:51;97014.75228294519;;;18.385375788714736
77385;BMP280;66444;49.680;18.538;2023-05-23T18:20:54;97018.66046977136;;;18.339672132302077
77385;BMP280;66444;49.680;18.538;2023-05-23T18:25:58;97026.42690009558;;;18.28381146751344
77385;BMP280;66444;49.680;18.538;2023-05-23T18:31:02;97034.99775372617;;;18.197479963861404
77385;BMP280;66444;49.680;18.538;2023-05-23T18:36:06;97044.00723413029;;;18.06036176523194
77385;BMP280;66444;49.680;18.538;2023-05-23T18:41:10;97046.24755110056;;;17.770876077655704
77385;BMP280;66444;49.680;18.538;2023-05-23T18:46:13;97061.09981800294;;;17.511846537329255
77385;BMP280;66444;49.680;18.538;2023-05-23T18:51:17;97063.5446643009;;;17.34931046832353
77385;BMP280;66444;49.680;18.538;2023-05-23T18:56:21;97064.44858492338;;;17.17660936410539
77385;BMP280;66444;49.680;18.538;2023-05-23T19:01:24;97072.19355161085;;;17.08517664363608
77385;BMP280;66444;49.680;18.538;2023-05-23T19:06:29;97073.79421486531;;;16.988662281585857
77385;BMP280;66444;49.680;18.538;2023-05-23T19:11:33;97084.56453184948;;;16.953103829035534
77385;BMP280;66444;49.680;18.538;2023-05-23T19:16:37;97086.83569250381;;;17.003901531081645
77385;BMP280;66444;49.680;18.538;2023-05-23T19:21:45;97078.44840094926;;;16.912465248303487
77385;BMP280;66444;49.680;18.538;2023-05-23T19:26:48;97074.27538445327;;;16.831186969252304
77385;BMP280;66444;49.680;18.538;2023-05-23T19:31:52;97072.37428336918;;;16.800707230437546
77385;BMP280;66444;49.680;18.538;2023-05-23T19:36:56;97066.2578246248;;;16.760067252721637
77385;BMP280;66444;49.680;18.538;2023-05-23T19:41:59;97068.17924891651;;;16.754987229313702
77385;BMP280;66444;49.680;18.538;2023-05-23T19:47:03;97073.1786392542;;;16.734667077474295
77385;BMP280;66444;49.680;18.538;2023-05-23T19:52:07;97083.94068517565;;;16.69910658765584
77385;BMP280;66444;49.680;18.538;2023-05-23T19:57:11;97080.09862456769;;;16.7092667567078
77385;BMP280;66444;49.680;18.538;2023-05-23T20:02:16;97077.78574955997;;;16.72958702496253
77385;BMP280;66444;49.680;18.538;2023-05-23T20:07:21;97079.31510740943;;;16.739747124165298
77385;BMP280;66444;49.680;18.538;2023-05-23T20:12:26;97076.2563984164;;;16.719426902476698
77385;BMP280;66444;49.680;18.538;2023-05-23T20:17:31;97073.9809495189;;;16.668625940801576
77385;BMP280;66444;49.680;18.538;2023-05-23T20:22:38;97071.70476745364;;;16.617824397049844
77385;BMP280;66444;49.680;18.538;2023-05-23T20:27:43;97077.09260212975;;;16.58226297008805
77385;BMP280;66444;49.680;18.538;2023-05-23T20:32:48;97083.22793088797;;;16.587343191402034
77385;BMP280;66444;49.680;18.538;2023-05-23T20:37:53;97092.43910030118;;;16.5771827429533
77385;BMP280;66444;49.680;18.538;2023-05-23T20:43:03;97102.41498613553;;;16.572102509997784
77385;BMP280;66444;49.680;18.538;2023-05-23T20:48:14;97096.27957707184;;;16.567022271221504
77385;BMP280;66444;49.680;18.538;2023-05-23T20:53:19;97108.55049793553;;;16.5771827429533
77385;BMP280;66444;49.680;18.538;2023-05-23T20:58:25;97100.11988832694;;;16.55686177620664
77385;BMP280;66444;49.680;18.538;2023-05-23T21:03:31;97110.86048553044;;;16.55686177620664
77385;BMP280;66444;49.680;18.538;2023-05-23T21:08:46;97109.33024654414;;;16.546701257908715
77385;BMP280;66444;49.680;18.538;2023-05-23T21:13:52;97112.39073125496;;;16.567022271221504
77385;BMP280;66444;49.680;18.538;2023-05-23T21:19:03;97113.14102241388;;;16.607664018450304
77385;BMP280;66444;49.680;18.538;2023-05-23T21:24:08;97113.51593880114;;;16.62798475236632
77385;BMP280;66444;49.680;18.538;2023-05-23T21:29:13;97117.66600515158;;;16.78038728814572
77385;BMP280;66444;49.680;18.538;2023-05-23T21:34:19;97119.68114989981;;;16.561942026624457
77385;BMP280;66444;49.680;18.538;2023-05-23T21:39:24;97117.77508220157;;;16.531460436806082
77385;BMP280;66444;49.680;18.538;2023-05-23T21:44:29;97123.13155046491;;;16.567022271221504
77385;BMP280;66444;49.680;18.538;2023-05-23T21:49:34;97126.1924265328;;;16.587343191402034
77385;BMP280;66444;49.680;18.538;2023-05-23T21:54:40;97128.87772865767;;;16.587343191402034
77385;BMP280;66444;49.680;18.538;2023-05-23T21:59:45;97128.11248433904;;;16.58226297008805
77385;BMP280;66444;49.680;18.538;2023-05-23T22:04:50;97144.61330829567;;;16.567022271221504